sensor_id;sensor_type;location;lat;lon;timestamp;P1;durP1;ratioP1;P2;durP2;ratioP2
40286;SDS011;25998;46.604;13.610;2023-03-01T00:00:02;21.48;;;15.70;;
40286;SDS011;25998;46.604;13.610;2023-03-01T00:03:14;24.08;;;16.13;;
40286;SDS011;25998;46.604;13.610;2023-03-01T00:06:25;21.25;;;15.90;;
40286;SDS011;25998;46.604;13.610;2023-03-01T00:09:42;22.17;;;15.48;;
40286;SDS011;25998;46.604;13.610;2023-03-01T00:12:55;19.92;;;14.68;;
40286;SDS011;25998;46.604;13.610;2023-03-01T00:16:07;24.25;;;16.15;;
40286;SDS011;25998;46.604;13.610;2023-03-01T00:19:20;23.40;;;15.57;;
40286;SDS011;25998;46.604;13.610;2023-03-01T00:22:32;22.27;;;15.50;;
40286;SDS011;25998;46.604;13.610;2023-03-01T00:25:43;19.77;;;14.60;;
40286;SDS011;25998;46.604;13.610;2023-03-01T00:28:57;21.23;;;15.13;;
40286;SDS011;25998;46.604;13.610;2023-03-01T00:32:08;21.33;;;15.40;;
40286;SDS011;25998;46.604;13.610;2023-03-01T00:35:19;20.58;;;14.90;;
40286;SDS011;25998;46.604;13.610;2023-03-01T00:38:36;23.23;;;15.77;;
40286;SDS011;25998;46.604;13.610;2023-03-01T00:41:48;22.27;;;14.80;;
40286;SDS011;25998;46.604;13.610;2023-03-01T00:45:01;25.30;;;15.90;;
40286;SDS011;25998;46.604;13.610;2023-03-01T00:48:12;24.75;;;16.73;;
40286;SDS011;25998;46.604;13.610;2023-03-01T00:51:27;22.63;;;15.93;;
40286;SDS011;25998;46.604;13.610;2023-03-01T00:54:38;23.02;;;15.93;;
40286;SDS011;25998;46.604;13.610;2023-03-01T00:57:52;21.08;;;14.95;;
40286;SDS011;25998;46.604;13.610;2023-03-01T01:01:12;22.02;;;16.70;;
40286;SDS011;25998;46.604;13.610;2023-03-01T01:04:27;23.80;;;16.15;;
40286;SDS011;25998;46.604;13.610;2023-03-01T01:07:38;22.17;;;15.95;;
40286;SDS011;25998;46.604;13.610;2023-03-01T01:10:49;21.27;;;16.42;;
40286;SDS011;25998;46.604;13.610;2023-03-01T01:14:00;26.70;;;17.58;;
40286;SDS011;25998;46.604;13.610;2023-03-01T01:17:11;25.98;;;17.08;;
40286;SDS011;25998;46.604;13.610;2023-03-01T01:20:22;21.73;;;16.13;;
40286;SDS011;25998;46.604;13.610;2023-03-01T01:23:36;24.67;;;16.88;;
40286;SDS011;25998;46.604;13.610;2023-03-01T01:26:47;23.63;;;16.65;;
40286;SDS011;25998;46.604;13.610;2023-03-01T01:30:01;25.50;;;16.98;;
40286;SDS011;25998;46.604;13.610;2023-03-01T01:33:13;24.70;;;16.30;;
40286;SDS011;25998;46.604;13.610;2023-03-01T01:36:24;24.45;;;17.67;;
40286;SDS011;25998;46.604;13.610;2023-03-01T01:39:35;25.92;;;17.63;;
40286;SDS011;25998;46.604;13.610;2023-03-01T01:42:46;23.17;;;17.65;;
40286;SDS011;25998;46.604;13.610;2023-03-01T01:45:58;29.45;;;18.67;;
40286;SDS011;25998;46.604;13.610;2023-03-01T01:52:49;23.90;;;17.23;;
40286;SDS011;25998;46.604;13.610;2023-03-01T01:56:02;25.27;;;17.58;;
40286;SDS011;25998;46.604;13.610;2023-03-01T01:59:13;25.05;;;18.38;;
40286;SDS011;25998;46.604;13.610;2023-03-01T02:02:25;26.70;;;18.27;;
40286;SDS011;25998;46.604;13.610;2023-03-01T02:09:07;25.45;;;17.67;;
40286;SDS011;25998;46.604;13.610;2023-03-01T02:12:23;25.15;;;17.17;;
40286;SDS011;25998;46.604;13.610;2023-03-01T02:15:35;25.08;;;17.98;;
40286;SDS011;25998;46.604;13.610;2023-03-01T02:18:47;26.38;;;17.75;;
40286;SDS011;25998;46.604;13.610;2023-03-01T02:22:06;24.33;;;16.63;;
40286;SDS011;25998;46.604;13.610;2023-03-01T02:25:31;24.55;;;16.80;;
40286;SDS011;25998;46.604;13.610;2023-03-01T02:28:56;26.02;;;17.70;;
40286;SDS011;25998;46.604;13.610;2023-03-01T02:32:07;27.48;;;19.17;;
40286;SDS011;25998;46.604;13.610;2023-03-01T02:35:18;24.90;;;18.10;;
40286;SDS011;25998;46.604;13.610;2023-03-01T02:38:30;28.02;;;17.90;;
40286;SDS011;25998;46.604;13.610;2023-03-01T02:41:43;24.90;;;17.30;;
40286;SDS011;25998;46.604;13.610;2023-03-01T02:44:57;28.13;;;18.13;;
40286;SDS011;25998;46.604;13.610;2023-03-01T02:48:11;26.55;;;18.58;;
40286;SDS011;25998;46.604;13.610;2023-03-01T02:54:52;27.02;;;17.35;;
40286;SDS011;25998;46.604;13.610;2023-03-01T02:58:20;24.05;;;17.33;;
40286;SDS011;25998;46.604;13.610;2023-03-01T03:01:34;23.80;;;16.83;;
40286;SDS011;25998;46.604;13.610;2023-03-01T03:04:48;24.70;;;17.83;;
40286;SDS011;25998;46.604;13.610;2023-03-01T03:08:00;27.10;;;17.40;;
40286;SDS011;25998;46.604;13.610;2023-03-01T03:11:13;22.35;;;16.67;;
40286;SDS011;25998;46.604;13.610;2023-03-01T03:14:23;25.88;;;17.13;;
40286;SDS011;25998;46.604;13.610;2023-03-01T03:17:35;24.60;;;17.45;;
40286;SDS011;25998;46.604;13.610;2023-03-01T03:20:49;26.38;;;17.60;;
40286;SDS011;25998;46.604;13.610;2023-03-01T03:24:02;27.02;;;17.40;;
40286;SDS011;25998;46.604;13.610;2023-03-01T03:27:13;24.63;;;17.23;;
40286;SDS011;25998;46.604;13.610;2023-03-01T03:30:28;25.65;;;17.02;;
40286;SDS011;25998;46.604;13.610;2023-03-01T03:33:40;25.00;;;17.55;;
40286;SDS011;25998;46.604;13.610;2023-03-01T03:36:54;23.20;;;16.98;;
40286;SDS011;25998;46.604;13.610;2023-03-01T03:40:09;22.60;;;17.23;;
40286;SDS011;25998;46.604;13.610;2023-03-01T03:43:25;23.23;;;17.02;;
40286;SDS011;25998;46.604;13.610;2023-03-01T03:46:36;27.35;;;18.38;;
40286;SDS011;25998;46.604;13.610;2023-03-01T03:49:46;23.33;;;16.80;;
40286;SDS011;25998;46.604;13.610;2023-03-01T03:52:59;24.77;;;16.38;;
40286;SDS011;25998;46.604;13.610;2023-03-01T03:56:14;30.58;;;18.27;;
40286;SDS011;25998;46.604;13.610;2023-03-01T03:59:25;24.00;;;16.30;;
40286;SDS011;25998;46.604;13.610;2023-03-01T04:02:36;24.73;;;17.25;;
40286;SDS011;25998;46.604;13.610;2023-03-01T04:05:51;25.02;;;16.13;;
40286;SDS011;25998;46.604;13.610;2023-03-01T04:09:02;25.88;;;17.30;;
40286;SDS011;25998;46.604;13.610;2023-03-01T04:12:13;26.40;;;18.88;;
40286;SDS011;25998;46.604;13.610;2023-03-01T04:15:24;25.33;;;18.08;;
40286;SDS011;25998;46.604;13.610;2023-03-01T04:18:37;24.60;;;18.88;;
40286;SDS011;25998;46.604;13.610;2023-03-01T04:21:48;26.30;;;17.75;;
40286;SDS011;25998;46.604;13.610;2023-03-01T04:24:58;27.63;;;18.98;;
40286;SDS011;25998;46.604;13.610;2023-03-01T04:28:16;25.42;;;18.33;;
40286;SDS011;25998;46.604;13.610;2023-03-01T04:31:27;28.52;;;19.73;;
40286;SDS011;25998;46.604;13.610;2023-03-01T04:34:38;28.48;;;19.90;;
40286;SDS011;25998;46.604;13.610;2023-03-01T04:37:49;27.45;;;18.70;;
40286;SDS011;25998;46.604;13.610;2023-03-01T04:41:06;26.45;;;18.60;;
40286;SDS011;25998;46.604;13.610;2023-03-01T04:44:19;29.92;;;19.20;;
40286;SDS011;25998;46.604;13.610;2023-03-01T04:47:30;25.83;;;18.85;;
40286;SDS011;25998;46.604;13.610;2023-03-01T04:50:41;29.60;;;20.73;;
40286;SDS011;25998;46.604;13.610;2023-03-01T04:53:52;27.13;;;18.15;;
40286;SDS011;25998;46.604;13.610;2023-03-01T04:57:03;29.92;;;20.30;;
40286;SDS011;25998;46.604;13.610;2023-03-01T05:00:18;28.55;;;20.08;;
40286;SDS011;25998;46.604;13.610;2023-03-01T05:03:30;27.05;;;19.17;;
40286;SDS011;25998;46.604;13.610;2023-03-01T05:06:40;26.70;;;19.05;;
40286;SDS011;25998;46.604;13.610;2023-03-01T05:09:54;26.63;;;19.77;;
40286;SDS011;25998;46.604;13.610;2023-03-01T05:13:06;28.15;;;20.73;;
40286;SDS011;25998;46.604;13.610;2023-03-01T05:16:23;28.25;;;20.08;;
40286;SDS011;25998;46.604;13.610;2023-03-01T05:19:33;28.30;;;19.77;;
40286;SDS011;25998;46.604;13.610;2023-03-01T05:22:45;29.38;;;19.75;;
40286;SDS011;25998;46.604;13.610;2023-03-01T05:26:02;30.55;;;19.38;;
40286;SDS011;25998;46.604;13.610;2023-03-01T05:29:16;27.35;;;19.55;;
40286;SDS011;25998;46.604;13.610;2023-03-01T05:32:29;25.65;;;18.83;;
40286;SDS011;25998;46.604;13.610;2023-03-01T05:35:42;28.70;;;18.92;;
40286;SDS011;25998;46.604;13.610;2023-03-01T05:38:54;28.23;;;19.92;;
40286;SDS011;25998;46.604;13.610;2023-03-01T05:42:05;31.85;;;20.30;;
40286;SDS011;25998;46.604;13.610;2023-03-01T05:45:18;28.83;;;19.15;;
40286;SDS011;25998;46.604;13.610;2023-03-01T05:48:30;28.70;;;21.05;;
40286;SDS011;25998;46.604;13.610;2023-03-01T05:51:42;26.95;;;19.52;;
40286;SDS011;25998;46.604;13.610;2023-03-01T05:54:57;30.52;;;19.98;;
40286;SDS011;25998;46.604;13.610;2023-03-01T05:58:12;27.63;;;18.92;;
40286;SDS011;25998;46.604;13.610;2023-03-01T06:01:25;29.35;;;19.67;;
40286;SDS011;25998;46.604;13.610;2023-03-01T06:04:35;31.13;;;19.63;;
40286;SDS011;25998;46.604;13.610;2023-03-01T06:07:46;28.73;;;19.80;;
40286;SDS011;25998;46.604;13.610;2023-03-01T06:10:57;29.35;;;20.30;;
40286;SDS011;25998;46.604;13.610;2023-03-01T06:14:08;27.83;;;19.60;;
40286;SDS011;25998;46.604;13.610;2023-03-01T06:17:20;33.50;;;20.77;;
40286;SDS011;25998;46.604;13.610;2023-03-01T06:20:31;31.98;;;20.75;;
40286;SDS011;25998;46.604;13.610;2023-03-01T06:23:42;32.30;;;20.90;;
40286;SDS011;25998;46.604;13.610;2023-03-01T06:26:53;30.00;;;20.38;;
40286;SDS011;25998;46.604;13.610;2023-03-01T06:30:04;31.13;;;19.25;;
40286;SDS011;25998;46.604;13.610;2023-03-01T06:33:15;26.77;;;18.80;;
40286;SDS011;25998;46.604;13.610;2023-03-01T06:36:26;27.80;;;19.75;;
40286;SDS011;25998;46.604;13.610;2023-03-01T06:39:37;30.90;;;21.00;;
40286;SDS011;25998;46.604;13.610;2023-03-01T06:42:48;35.35;;;22.00;;
40286;SDS011;25998;46.604;13.610;2023-03-01T06:46:00;32.08;;;22.10;;
40286;SDS011;25998;46.604;13.610;2023-03-01T06:49:13;30.55;;;20.75;;
40286;SDS011;25998;46.604;13.610;2023-03-01T06:52:26;31.05;;;20.67;;
40286;SDS011;25998;46.604;13.610;2023-03-01T06:55:37;30.55;;;20.92;;
40286;SDS011;25998;46.604;13.610;2023-03-01T06:58:48;32.03;;;21.02;;
40286;SDS011;25998;46.604;13.610;2023-03-01T07:01:58;31.38;;;20.67;;
40286;SDS011;25998;46.604;13.610;2023-03-01T07:05:09;35.85;;;23.95;;
40286;SDS011;25998;46.604;13.610;2023-03-01T07:08:20;28.85;;;21.10;;
40286;SDS011;25998;46.604;13.610;2023-03-01T07:11:31;34.08;;;23.25;;
40286;SDS011;25998;46.604;13.610;2023-03-01T07:14:43;35.55;;;24.17;;
40286;SDS011;25998;46.604;13.610;2023-03-01T07:17:55;36.50;;;24.55;;
40286;SDS011;25998;46.604;13.610;2023-03-01T07:21:11;33.10;;;22.88;;
40286;SDS011;25998;46.604;13.610;2023-03-01T07:24:23;32.35;;;22.05;;
40286;SDS011;25998;46.604;13.610;2023-03-01T07:27:34;34.70;;;23.90;;
40286;SDS011;25998;46.604;13.610;2023-03-01T07:30:45;37.45;;;24.00;;
40286;SDS011;25998;46.604;13.610;2023-03-01T07:33:56;38.35;;;25.33;;
40286;SDS011;25998;46.604;13.610;2023-03-01T07:37:07;34.53;;;22.88;;
40286;SDS011;25998;46.604;13.610;2023-03-01T07:40:17;34.25;;;22.77;;
40286;SDS011;25998;46.604;13.610;2023-03-01T07:43:29;29.88;;;22.42;;
40286;SDS011;25998;46.604;13.610;2023-03-01T07:46:40;31.73;;;22.13;;
40286;SDS011;25998;46.604;13.610;2023-03-01T07:49:51;35.92;;;23.00;;
40286;SDS011;25998;46.604;13.610;2023-03-01T07:53:02;32.05;;;22.77;;
40286;SDS011;25998;46.604;13.610;2023-03-01T07:56:13;35.05;;;23.70;;
40286;SDS011;25998;46.604;13.610;2023-03-01T07:59:27;35.25;;;22.83;;
40286;SDS011;25998;46.604;13.610;2023-03-01T08:02:39;38.03;;;24.15;;
40286;SDS011;25998;46.604;13.610;2023-03-01T08:05:51;34.63;;;23.85;;
40286;SDS011;25998;46.604;13.610;2023-03-01T08:09:02;32.50;;;21.67;;
40286;SDS011;25998;46.604;13.610;2023-03-01T08:12:13;34.20;;;23.38;;
40286;SDS011;25998;46.604;13.610;2023-03-01T08:15:26;30.70;;;21.73;;
40286;SDS011;25998;46.604;13.610;2023-03-01T08:18:37;33.88;;;22.98;;
40286;SDS011;25998;46.604;13.610;2023-03-01T08:21:48;35.95;;;22.55;;
40286;SDS011;25998;46.604;13.610;2023-03-01T08:24:59;28.98;;;21.67;;
40286;SDS011;25998;46.604;13.610;2023-03-01T08:28:10;34.85;;;22.23;;
40286;SDS011;25998;46.604;13.610;2023-03-01T08:31:28;35.42;;;22.13;;
40286;SDS011;25998;46.604;13.610;2023-03-01T08:34:41;32.10;;;22.85;;
40286;SDS011;25998;46.604;13.610;2023-03-01T08:37:52;35.20;;;22.85;;
40286;SDS011;25998;46.604;13.610;2023-03-01T08:41:03;32.85;;;22.42;;
40286;SDS011;25998;46.604;13.610;2023-03-01T08:44:14;31.67;;;23.55;;
40286;SDS011;25998;46.604;13.610;2023-03-01T08:47:26;36.15;;;24.17;;
40286;SDS011;25998;46.604;13.610;2023-03-01T08:50:37;37.38;;;24.83;;
40286;SDS011;25998;46.604;13.610;2023-03-01T08:53:48;36.80;;;25.58;;
40286;SDS011;25998;46.604;13.610;2023-03-01T08:57:01;77.25;;;47.00;;
40286;SDS011;25998;46.604;13.610;2023-03-01T09:00:12;41.38;;;28.13;;
40286;SDS011;25998;46.604;13.610;2023-03-01T09:03:25;35.78;;;25.55;;
40286;SDS011;25998;46.604;13.610;2023-03-01T09:06:36;39.47;;;27.23;;
40286;SDS011;25998;46.604;13.610;2023-03-01T09:09:47;35.58;;;24.90;;
40286;SDS011;25998;46.604;13.610;2023-03-01T09:12:58;36.65;;;24.45;;
40286;SDS011;25998;46.604;13.610;2023-03-01T09:16:10;36.78;;;25.63;;
40286;SDS011;25998;46.604;13.610;2023-03-01T09:19:21;38.65;;;26.02;;
40286;SDS011;25998;46.604;13.610;2023-03-01T09:22:35;36.33;;;24.63;;
40286;SDS011;25998;46.604;13.610;2023-03-01T09:25:46;34.05;;;23.98;;
40286;SDS011;25998;46.604;13.610;2023-03-01T09:28:57;40.13;;;25.10;;
40286;SDS011;25998;46.604;13.610;2023-03-01T09:32:08;35.70;;;26.65;;
40286;SDS011;25998;46.604;13.610;2023-03-01T09:35:18;41.28;;;26.60;;
40286;SDS011;25998;46.604;13.610;2023-03-01T09:38:30;36.53;;;25.80;;
40286;SDS011;25998;46.604;13.610;2023-03-01T09:45:04;36.20;;;25.92;;
40286;SDS011;25998;46.604;13.610;2023-03-01T09:48:18;36.93;;;26.80;;
40286;SDS011;25998;46.604;13.610;2023-03-01T09:51:33;39.30;;;26.88;;
40286;SDS011;25998;46.604;13.610;2023-03-01T09:54:45;32.97;;;23.33;;
40286;SDS011;25998;46.604;13.610;2023-03-01T10:04:45;37.38;;;24.40;;
40286;SDS011;25998;46.604;13.610;2023-03-01T10:08:24;33.83;;;23.90;;
40286;SDS011;25998;46.604;13.610;2023-03-01T10:11:41;31.23;;;23.15;;
40286;SDS011;25998;46.604;13.610;2023-03-01T10:15:05;34.38;;;23.90;;
40286;SDS011;25998;46.604;13.610;2023-03-01T10:18:21;32.65;;;22.55;;
40286;SDS011;25998;46.604;13.610;2023-03-01T10:21:41;34.90;;;23.05;;
40286;SDS011;25998;46.604;13.610;2023-03-01T10:24:57;34.55;;;23.85;;
40286;SDS011;25998;46.604;13.610;2023-03-01T10:28:17;33.78;;;23.10;;
40286;SDS011;25998;46.604;13.610;2023-03-01T10:31:54;34.03;;;23.60;;
40286;SDS011;25998;46.604;13.610;2023-03-01T10:35:16;32.47;;;24.08;;
40286;SDS011;25998;46.604;13.610;2023-03-01T10:38:27;31.63;;;23.02;;
40286;SDS011;25998;46.604;13.610;2023-03-01T10:41:58;31.50;;;22.77;;
40286;SDS011;25998;46.604;13.610;2023-03-01T10:48:29;33.88;;;23.70;;
40286;SDS011;25998;46.604;13.610;2023-03-01T10:51:41;32.85;;;24.70;;
40286;SDS011;25998;46.604;13.610;2023-03-01T10:54:58;31.80;;;23.35;;
40286;SDS011;25998;46.604;13.610;2023-03-01T11:05:30;31.63;;;22.38;;
40286;SDS011;25998;46.604;13.610;2023-03-01T11:08:32;40.92;;;24.35;;
40286;SDS011;25998;46.604;13.610;2023-03-01T11:11:55;32.08;;;23.15;;
40286;SDS011;25998;46.604;13.610;2023-03-01T11:15:08;33.65;;;22.08;;
40286;SDS011;25998;46.604;13.610;2023-03-01T11:18:33;30.75;;;21.20;;
40286;SDS011;25998;46.604;13.610;2023-03-01T11:21:47;32.25;;;23.33;;
40286;SDS011;25998;46.604;13.610;2023-03-01T11:25:01;30.48;;;22.23;;
40286;SDS011;25998;46.604;13.610;2023-03-01T11:28:14;31.65;;;21.95;;
40286;SDS011;25998;46.604;13.610;2023-03-01T11:31:27;33.05;;;21.70;;
40286;SDS011;25998;46.604;13.610;2023-03-01T11:34:44;30.42;;;23.15;;
40286;SDS011;25998;46.604;13.610;2023-03-01T11:41:28;34.97;;;24.63;;
40286;SDS011;25998;46.604;13.610;2023-03-01T11:44:42;34.90;;;25.50;;
40286;SDS011;25998;46.604;13.610;2023-03-01T11:48:06;30.92;;;22.45;;
40286;SDS011;25998;46.604;13.610;2023-03-01T11:55:16;28.98;;;20.48;;
40286;SDS011;25998;46.604;13.610;2023-03-01T12:12:32;31.92;;;23.13;;
40286;SDS011;25998;46.604;13.610;2023-03-01T12:20:00;28.90;;;21.70;;
40286;SDS011;25998;46.604;13.610;2023-03-01T12:23:32;27.52;;;20.55;;
40286;SDS011;25998;46.604;13.610;2023-03-01T12:27:21;29.90;;;21.83;;
40286;SDS011;25998;46.604;13.610;2023-03-01T12:31:15;31.23;;;21.55;;
40286;SDS011;25998;46.604;13.610;2023-03-01T12:41:32;30.10;;;21.45;;
40286;SDS011;25998;46.604;13.610;2023-03-01T12:52:10;28.60;;;19.20;;
40286;SDS011;25998;46.604;13.610;2023-03-01T12:58:52;27.95;;;19.50;;
40286;SDS011;25998;46.604;13.610;2023-03-01T13:13:24;25.90;;;19.70;;
40286;SDS011;25998;46.604;13.610;2023-03-01T13:19:56;28.30;;;21.15;;
40286;SDS011;25998;46.604;13.610;2023-03-01T13:26:43;30.02;;;20.70;;
40286;SDS011;25998;46.604;13.610;2023-03-01T13:30:52;27.42;;;20.13;;
40286;SDS011;25998;46.604;13.610;2023-03-01T13:33:57;28.20;;;19.75;;
40286;SDS011;25998;46.604;13.610;2023-03-01T13:37:09;30.10;;;20.25;;
40286;SDS011;25998;46.604;13.610;2023-03-01T13:43:43;26.45;;;18.98;;
40286;SDS011;25998;46.604;13.610;2023-03-01T13:46:57;28.67;;;20.88;;
40286;SDS011;25998;46.604;13.610;2023-03-01T13:50:18;27.45;;;19.92;;
40286;SDS011;25998;46.604;13.610;2023-03-01T13:53:35;28.30;;;19.75;;
40286;SDS011;25998;46.604;13.610;2023-03-01T13:56:54;28.85;;;21.05;;
40286;SDS011;25998;46.604;13.610;2023-03-01T14:00:24;26.63;;;19.40;;
40286;SDS011;25998;46.604;13.610;2023-03-01T14:03:40;25.88;;;19.30;;
40286;SDS011;25998;46.604;13.610;2023-03-01T14:06:52;27.38;;;20.02;;
40286;SDS011;25998;46.604;13.610;2023-03-01T14:10:30;26.27;;;19.95;;
40286;SDS011;25998;46.604;13.610;2023-03-01T14:14:33;27.60;;;20.23;;
40286;SDS011;25998;46.604;13.610;2023-03-01T14:20:43;30.25;;;20.38;;
40286;SDS011;25998;46.604;13.610;2023-03-01T14:24:01;30.90;;;20.70;;
40286;SDS011;25998;46.604;13.610;2023-03-01T14:27:12;28.83;;;20.38;;
40286;SDS011;25998;46.604;13.610;2023-03-01T14:30:25;31.30;;;21.55;;
40286;SDS011;25998;46.604;13.610;2023-03-01T14:33:41;24.40;;;19.33;;
40286;SDS011;25998;46.604;13.610;2023-03-01T14:36:51;30.52;;;21.63;;
40286;SDS011;25998;46.604;13.610;2023-03-01T14:40:03;29.45;;;21.00;;
40286;SDS011;25998;46.604;13.610;2023-03-01T14:43:16;28.83;;;21.45;;
40286;SDS011;25998;46.604;13.610;2023-03-01T14:46:36;32.28;;;21.60;;
40286;SDS011;25998;46.604;13.610;2023-03-01T14:49:53;33.70;;;23.02;;
40286;SDS011;25998;46.604;13.610;2023-03-01T14:53:15;30.15;;;20.92;;
40286;SDS011;25998;46.604;13.610;2023-03-01T14:56:27;28.65;;;21.17;;
40286;SDS011;25998;46.604;13.610;2023-03-01T14:59:59;30.13;;;21.20;;
40286;SDS011;25998;46.604;13.610;2023-03-01T15:03:18;32.40;;;22.13;;
40286;SDS011;25998;46.604;13.610;2023-03-01T15:06:42;27.02;;;20.15;;
40286;SDS011;25998;46.604;13.610;2023-03-01T15:09:54;31.23;;;21.17;;
40286;SDS011;25998;46.604;13.610;2023-03-01T15:13:12;33.05;;;22.15;;
40286;SDS011;25998;46.604;13.610;2023-03-01T15:19:37;29.90;;;21.50;;
40286;SDS011;25998;46.604;13.610;2023-03-01T15:22:48;29.17;;;20.45;;
40286;SDS011;25998;46.604;13.610;2023-03-01T15:25:59;27.00;;;21.27;;
40286;SDS011;25998;46.604;13.610;2023-03-01T15:29:15;29.85;;;20.20;;
40286;SDS011;25998;46.604;13.610;2023-03-01T15:32:31;29.95;;;20.63;;
40286;SDS011;25998;46.604;13.610;2023-03-01T15:35:45;26.95;;;20.25;;
40286;SDS011;25998;46.604;13.610;2023-03-01T15:38:58;25.48;;;19.63;;
40286;SDS011;25998;46.604;13.610;2023-03-01T15:45:38;28.63;;;20.15;;
40286;SDS011;25998;46.604;13.610;2023-03-01T15:48:50;28.67;;;20.23;;
40286;SDS011;25998;46.604;13.610;2023-03-01T15:52:11;28.10;;;19.40;;
40286;SDS011;25998;46.604;13.610;2023-03-01T15:55:39;27.92;;;20.60;;
40286;SDS011;25998;46.604;13.610;2023-03-01T15:58:56;28.27;;;20.45;;
40286;SDS011;25998;46.604;13.610;2023-03-01T16:02:12;33.75;;;21.08;;
40286;SDS011;25998;46.604;13.610;2023-03-01T16:05:25;27.17;;;20.85;;
40286;SDS011;25998;46.604;13.610;2023-03-01T16:08:38;29.45;;;20.85;;
40286;SDS011;25998;46.604;13.610;2023-03-01T16:11:49;30.45;;;21.02;;
40286;SDS011;25998;46.604;13.610;2023-03-01T16:15:01;29.55;;;21.90;;
40286;SDS011;25998;46.604;13.610;2023-03-01T16:18:12;28.25;;;21.30;;
40286;SDS011;25998;46.604;13.610;2023-03-01T16:21:24;33.50;;;22.33;;
40286;SDS011;25998;46.604;13.610;2023-03-01T16:24:35;33.38;;;23.40;;
40286;SDS011;25998;46.604;13.610;2023-03-01T16:27:47;32.10;;;22.95;;
40286;SDS011;25998;46.604;13.610;2023-03-01T16:30:59;31.35;;;22.98;;
40286;SDS011;25998;46.604;13.610;2023-03-01T16:34:11;30.38;;;21.38;;
40286;SDS011;25998;46.604;13.610;2023-03-01T16:37:22;32.40;;;22.23;;
40286;SDS011;25998;46.604;13.610;2023-03-01T16:40:33;31.70;;;22.77;;
40286;SDS011;25998;46.604;13.610;2023-03-01T16:43:44;35.60;;;23.90;;
40286;SDS011;25998;46.604;13.610;2023-03-01T16:46:56;32.92;;;23.25;;
40286;SDS011;25998;46.604;13.610;2023-03-01T16:50:07;31.90;;;22.75;;
40286;SDS011;25998;46.604;13.610;2023-03-01T16:53:19;34.15;;;23.67;;
40286;SDS011;25998;46.604;13.610;2023-03-01T16:56:30;67.07;;;44.67;;
40286;SDS011;25998;46.604;13.610;2023-03-01T16:59:44;40.35;;;26.38;;
40286;SDS011;25998;46.604;13.610;2023-03-01T17:02:55;80.05;;;61.20;;
40286;SDS011;25998;46.604;13.610;2023-03-01T17:06:07;35.58;;;23.98;;
40286;SDS011;25998;46.604;13.610;2023-03-01T17:09:20;52.25;;;33.78;;
40286;SDS011;25998;46.604;13.610;2023-03-01T17:12:32;34.03;;;22.45;;
40286;SDS011;25998;46.604;13.610;2023-03-01T17:15:45;39.55;;;26.20;;
40286;SDS011;25998;46.604;13.610;2023-03-01T17:18:56;34.22;;;23.88;;
40286;SDS011;25998;46.604;13.610;2023-03-01T17:22:07;33.15;;;23.63;;
40286;SDS011;25998;46.604;13.610;2023-03-01T17:25:26;36.58;;;27.15;;
40286;SDS011;25998;46.604;13.610;2023-03-01T17:28:37;36.85;;;24.80;;
40286;SDS011;25998;46.604;13.610;2023-03-01T17:31:49;34.20;;;22.90;;
40286;SDS011;25998;46.604;13.610;2023-03-01T17:35:00;31.08;;;22.75;;
40286;SDS011;25998;46.604;13.610;2023-03-01T17:38:11;30.83;;;21.70;;
40286;SDS011;25998;46.604;13.610;2023-03-01T17:41:22;30.73;;;21.30;;
40286;SDS011;25998;46.604;13.610;2023-03-01T17:44:34;32.10;;;22.67;;
40286;SDS011;25998;46.604;13.610;2023-03-01T17:47:47;39.13;;;25.63;;
40286;SDS011;25998;46.604;13.610;2023-03-01T17:50:58;32.33;;;23.90;;
40286;SDS011;25998;46.604;13.610;2023-03-01T17:54:12;33.95;;;22.85;;
40286;SDS011;25998;46.604;13.610;2023-03-01T17:57:26;33.33;;;23.83;;
40286;SDS011;25998;46.604;13.610;2023-03-01T18:00:37;31.52;;;23.20;;
40286;SDS011;25998;46.604;13.610;2023-03-01T18:03:51;33.00;;;23.42;;
40286;SDS011;25998;46.604;13.610;2023-03-01T18:07:05;35.85;;;24.83;;
40286;SDS011;25998;46.604;13.610;2023-03-01T18:10:16;32.85;;;24.45;;
40286;SDS011;25998;46.604;13.610;2023-03-01T18:13:27;33.67;;;23.17;;
40286;SDS011;25998;46.604;13.610;2023-03-01T18:16:38;38.17;;;24.45;;
40286;SDS011;25998;46.604;13.610;2023-03-01T18:19:49;35.67;;;24.25;;
40286;SDS011;25998;46.604;13.610;2023-03-01T18:23:00;33.95;;;23.83;;
40286;SDS011;25998;46.604;13.610;2023-03-01T18:26:11;36.30;;;24.13;;
40286;SDS011;25998;46.604;13.610;2023-03-01T18:29:26;37.10;;;25.02;;
40286;SDS011;25998;46.604;13.610;2023-03-01T18:32:37;32.13;;;24.00;;
40286;SDS011;25998;46.604;13.610;2023-03-01T18:35:48;32.97;;;23.10;;
40286;SDS011;25998;46.604;13.610;2023-03-01T18:39:04;32.33;;;22.45;;
40286;SDS011;25998;46.604;13.610;2023-03-01T18:42:15;38.40;;;24.15;;
40286;SDS011;25998;46.604;13.610;2023-03-01T18:45:29;34.83;;;23.65;;
40286;SDS011;25998;46.604;13.610;2023-03-01T18:48:40;34.70;;;24.08;;
40286;SDS011;25998;46.604;13.610;2023-03-01T18:51:52;32.95;;;23.90;;
40286;SDS011;25998;46.604;13.610;2023-03-01T18:55:05;34.65;;;23.30;;
40286;SDS011;25998;46.604;13.610;2023-03-01T18:58:16;32.22;;;22.30;;
40286;SDS011;25998;46.604;13.610;2023-03-01T19:01:28;34.33;;;23.35;;
40286;SDS011;25998;46.604;13.610;2023-03-01T19:04:40;30.95;;;22.95;;
40286;SDS011;25998;46.604;13.610;2023-03-01T19:07:51;36.53;;;24.13;;
40286;SDS011;25998;46.604;13.610;2023-03-01T19:11:04;33.22;;;23.00;;
40286;SDS011;25998;46.604;13.610;2023-03-01T19:14:15;34.65;;;23.73;;
40286;SDS011;25998;46.604;13.610;2023-03-01T19:17:26;32.92;;;23.73;;
40286;SDS011;25998;46.604;13.610;2023-03-01T19:20:40;32.20;;;23.05;;
40286;SDS011;25998;46.604;13.610;2023-03-01T19:23:51;32.63;;;23.35;;
40286;SDS011;25998;46.604;13.610;2023-03-01T19:27:02;33.63;;;23.25;;
40286;SDS011;25998;46.604;13.610;2023-03-01T19:30:13;37.22;;;25.20;;
40286;SDS011;25998;46.604;13.610;2023-03-01T19:33:27;41.78;;;27.52;;
40286;SDS011;25998;46.604;13.610;2023-03-01T19:36:39;33.15;;;23.63;;
40286;SDS011;25998;46.604;13.610;2023-03-01T19:39:51;32.42;;;23.17;;
40286;SDS011;25998;46.604;13.610;2023-03-01T19:43:02;31.73;;;23.15;;
40286;SDS011;25998;46.604;13.610;2023-03-01T19:46:13;35.70;;;22.70;;
40286;SDS011;25998;46.604;13.610;2023-03-01T19:49:25;55.65;;;39.08;;
40286;SDS011;25998;46.604;13.610;2023-03-01T19:52:36;80.05;;;53.95;;
40286;SDS011;25998;46.604;13.610;2023-03-01T19:55:47;44.80;;;31.50;;
40286;SDS011;25998;46.604;13.610;2023-03-01T19:59:01;91.35;;;56.95;;
40286;SDS011;25998;46.604;13.610;2023-03-01T20:02:13;79.10;;;51.83;;
40286;SDS011;25998;46.604;13.610;2023-03-01T20:05:24;54.08;;;36.65;;
40286;SDS011;25998;46.604;13.610;2023-03-01T20:08:35;47.15;;;32.05;;
40286;SDS011;25998;46.604;13.610;2023-03-01T20:11:45;50.13;;;32.65;;
40286;SDS011;25998;46.604;13.610;2023-03-01T20:14:56;45.03;;;31.67;;
40286;SDS011;25998;46.604;13.610;2023-03-01T20:18:08;52.58;;;35.58;;
40286;SDS011;25998;46.604;13.610;2023-03-01T20:21:22;60.08;;;40.42;;